createdAt,value
2022-11-29T00:00:03.257Z,95.57
2022-11-29T00:02:45.497Z,95.61
2022-11-29T00:05:15.140Z,95.73
2022-11-29T00:07:44.820Z,95.73
2022-11-29T00:10:14.751Z,95.72
2022-11-29T00:12:44.380Z,95.56
2022-11-29T00:15:14.325Z,95.49
2022-11-29T00:17:46.480Z,95.63
2022-11-29T00:20:16.382Z,95.36
2022-11-29T00:22:45.943Z,95.52
2022-11-29T00:25:15.483Z,95.59
2022-11-29T00:27:45.020Z,95.59
2022-11-29T00:30:15.731Z,95.62
2022-11-29T00:32:48.193Z,95.63
2022-11-29T00:35:17.975Z,95.47
2022-11-29T00:37:47.535Z,95.69
2022-11-29T00:40:17.167Z,95.53
2022-11-29T00:42:46.723Z,95.78
2022-11-29T00:45:16.280Z,95.68
2022-11-29T00:47:48.444Z,95.50
2022-11-29T00:50:18.069Z,95.69
2022-11-29T00:52:47.685Z,95.56
2022-11-29T00:55:17.766Z,95.66
2022-11-29T00:57:47.374Z,95.82
2022-11-29T01:00:18.372Z,95.69
2022-11-29T01:02:50.766Z,95.60
2022-11-29T01:05:20.585Z,95.59
2022-11-29T01:07:50.245Z,95.81
2022-11-29T01:10:19.906Z,95.79
2022-11-29T01:12:49.456Z,95.86
2022-11-29T01:15:19.203Z,95.86
2022-11-29T01:17:51.524Z,95.92
2022-11-29T01:20:21.133Z,95.82
2022-11-29T01:22:51.040Z,96.01
2022-11-29T01:25:21.367Z,95.66
2022-11-29T01:27:50.935Z,95.69
2022-11-29T01:30:20.667Z,95.76
2022-11-29T01:32:52.815Z,95.91
2022-11-29T01:35:22.356Z,95.93
2022-11-29T01:37:51.901Z,95.86
2022-11-29T01:40:21.551Z,95.95
2022-11-29T01:42:51.256Z,95.79
2022-11-29T01:45:27.423Z,95.75
2022-11-29T01:48:00.659Z,95.91
2022-11-29T01:50:30.249Z,95.96
2022-11-29T01:53:00.619Z,95.91
2022-11-29T01:55:30.487Z,96.00
2022-11-29T01:58:01.391Z,95.87
2022-11-29T02:00:30.964Z,95.92
2022-11-29T02:03:07.053Z,96.00
2022-11-29T02:05:36.672Z,95.83
2022-11-29T02:08:07.031Z,96.12
2022-11-29T02:10:46.310Z,96.16
2022-11-29T02:13:24.838Z,96.05
2022-11-29T02:15:59.235Z,95.60
2022-11-29T02:18:45.706Z,96.02
2022-11-29T02:21:33.679Z,95.85
2022-11-29T02:24:17.077Z,95.76
2022-11-29T02:27:01.839Z,95.92
2022-11-29T02:29:40.573Z,95.68
2022-11-29T02:32:36.902Z,95.89
2022-11-29T02:35:18.361Z,95.72
2022-11-29T02:38:09.274Z,95.97
2022-11-29T02:40:52.384Z,95.79
2022-11-29T02:43:39.567Z,95.74
2022-11-29T02:46:24.646Z,95.91
2022-11-29T02:49:03.638Z,95.80
2022-11-29T02:51:41.305Z,95.78
2022-11-29T02:54:17.041Z,95.94
2022-11-29T02:56:49.492Z,95.94
2022-11-29T02:59:27.792Z,95.99
2022-11-29T03:02:06.242Z,95.86
2022-11-29T03:04:44.198Z,95.97
2022-11-29T03:07:18.236Z,96.05
2022-11-29T03:09:50.519Z,95.94
2022-11-29T03:12:23.715Z,96.05
2022-11-29T03:14:59.195Z,95.90
2022-11-29T03:17:34.959Z,96.02
2022-11-29T03:20:15.744Z,95.89
2022-11-29T03:22:50.564Z,96.04
2022-11-29T03:25:25.586Z,96.06
2022-11-29T03:27:59.619Z,96.15
2022-11-29T03:30:29.217Z,96.23
2022-11-29T03:33:05.535Z,96.08
2022-11-29T03:35:42.709Z,95.99
2022-11-29T03:38:18.017Z,96.32
2022-11-29T03:40:52.858Z,96.20
2022-11-29T03:43:26.505Z,96.21
2022-11-29T03:46:00.516Z,96.13
2022-11-29T03:48:34.254Z,96.03
2022-11-29T03:51:10.311Z,96.13
2022-11-29T03:53:44.859Z,96.13
2022-11-29T03:56:28.868Z,96.17
2022-11-29T03:59:06.219Z,96.20
2022-11-29T04:02:20.110Z,96.10
2022-11-29T04:05:12.078Z,96.22
2022-11-29T04:07:57.038Z,96.27
2022-11-29T04:10:43.329Z,96.38
2022-11-29T04:13:34.271Z,96.57
2022-11-29T04:16:36.307Z,96.29
2022-11-29T04:19:18.603Z,96.50
2022-11-29T04:22:11.841Z,96.44
2022-11-29T04:25:12.109Z,96.54
2022-11-29T04:28:04.035Z,96.40
2022-11-29T04:30:38.023Z,96.34
2022-11-29T04:33:33.050Z,96.27
2022-11-29T04:36:29.601Z,96.49
2022-11-29T04:39:16.688Z,96.48
2022-11-29T04:42:18.879Z,96.51
2022-11-29T04:44:59.832Z,96.45
2022-11-29T04:47:44.990Z,96.65
2022-11-29T04:50:33.667Z,96.68
2022-11-29T04:53:30.871Z,96.84
2022-11-29T04:56:08.444Z,96.65
2022-11-29T04:58:44.239Z,96.81
2022-11-29T05:01:20.594Z,96.98
2022-11-29T05:03:57.054Z,96.77
2022-11-29T05:06:32.417Z,97.23
2022-11-29T05:09:09.659Z,96.96
2022-11-29T05:11:47.522Z,96.97
2022-11-29T05:14:30.083Z,97.05
2022-11-29T05:17:07.015Z,97.22
2022-11-29T05:19:49.640Z,97.31
2022-11-29T05:22:34.784Z,97.19
2022-11-29T05:25:18.979Z,97.38
2022-11-29T05:27:50.881Z,97.40
2022-11-29T05:30:25.519Z,97.51
2022-11-29T05:33:00.260Z,97.51
2022-11-29T05:35:42.988Z,97.61
2022-11-29T05:38:26.753Z,97.52
2022-11-29T05:41:06.050Z,97.86
2022-11-29T05:43:48.421Z,97.53
2022-11-29T05:46:24.993Z,97.61
2022-11-29T05:49:01.789Z,97.47
2022-11-29T05:51:40.763Z,97.63
2022-11-29T05:54:17.421Z,97.88
2022-11-29T05:56:52.200Z,97.70
2022-11-29T05:59:23.966Z,97.84
2022-11-29T06:02:00.817Z,97.79
2022-11-29T06:04:36.748Z,97.79
2022-11-29T06:07:11.625Z,97.97
2022-11-29T06:09:44.260Z,97.96
2022-11-29T06:12:21.023Z,97.93
2022-11-29T06:15:31.024Z,97.81
2022-11-29T06:18:17.262Z,97.67
2022-11-29T06:20:55.631Z,97.52
2022-11-29T06:23:57.863Z,97.31
2022-11-29T06:26:47.592Z,97.18
2022-11-29T06:29:26.560Z,97.00
2022-11-29T06:32:00.092Z,97.02
2022-11-29T06:34:36.529Z,96.81
2022-11-29T06:37:08.568Z,96.68
2022-11-29T06:39:38.875Z,96.42
2022-11-29T06:42:08.531Z,96.42
2022-11-29T06:44:38.706Z,96.30
2022-11-29T06:47:10.431Z,96.28
2022-11-29T06:49:49.264Z,96.09
2022-11-29T06:52:27.466Z,95.97
2022-11-29T06:55:13.186Z,96.02
2022-11-29T06:57:51.704Z,95.74
2022-11-29T07:00:25.678Z,95.69
2022-11-29T07:03:28.936Z,95.45
2022-11-29T07:06:01.676Z,95.36
2022-11-29T07:08:31.912Z,95.10
2022-11-29T07:11:02.653Z,95.02
2022-11-29T07:13:32.907Z,95.03
2022-11-29T07:16:07.962Z,94.93
2022-11-29T07:18:45.534Z,94.85
2022-11-29T07:21:24.348Z,94.52
2022-11-29T07:23:58.759Z,94.45
2022-11-29T07:26:34.581Z,94.25
2022-11-29T07:29:14.131Z,94.35
2022-11-29T07:31:51.387Z,94.09
2022-11-29T07:34:26.312Z,94.20
2022-11-29T07:37:06.493Z,93.88
2022-11-29T07:39:44.893Z,93.83
2022-11-29T07:42:19.147Z,93.76
2022-11-29T07:44:57.788Z,93.36
2022-11-29T07:47:31.263Z,93.50
2022-11-29T07:50:03.976Z,93.43
2022-11-29T07:52:36.630Z,93.17
2022-11-29T07:55:06.737Z,93.10
2022-11-29T07:57:36.998Z,92.92
2022-11-29T08:00:07.925Z,92.60
2022-11-29T08:02:41.478Z,92.47
2022-11-29T08:05:12.318Z,92.32
2022-11-29T08:07:44.601Z,92.11
2022-11-29T08:10:16.303Z,92.02
2022-11-29T08:12:46.820Z,92.00
2022-11-29T08:15:16.824Z,91.98
2022-11-29T08:17:46.474Z,91.86
2022-11-29T08:20:17.445Z,91.89
2022-11-29T08:22:56.866Z,91.70
2022-11-29T08:25:26.557Z,91.63
2022-11-29T08:27:57.263Z,91.40
2022-11-29T08:30:26.927Z,91.41
2022-11-29T08:32:56.473Z,91.30
2022-11-29T08:35:26.524Z,91.06
2022-11-29T08:37:58.718Z,91.07
2022-11-29T08:40:28.296Z,90.84
2022-11-29T08:43:00.134Z,90.67
2022-11-29T08:45:29.821Z,90.45
2022-11-29T08:47:59.404Z,90.20
2022-11-29T08:50:28.949Z,90.08
2022-11-29T08:53:13.648Z,89.96
2022-11-29T08:55:46.560Z,89.92
2022-11-29T08:58:18.174Z,89.73
2022-11-29T09:00:48.627Z,89.53
2022-11-29T09:03:30.688Z,89.25
2022-11-29T09:06:00.386Z,89.14
2022-11-29T09:08:32.515Z,89.08
2022-11-29T09:11:02.119Z,88.90
2022-11-29T09:13:31.660Z,88.79
2022-11-29T09:16:01.284Z,88.85
2022-11-29T09:18:31.059Z,88.76
2022-11-29T09:21:00.855Z,88.66
2022-11-29T09:23:33.020Z,88.33
2022-11-29T09:26:02.612Z,88.21
2022-11-29T09:28:33.351Z,88.08
2022-11-29T09:31:08.015Z,87.94
2022-11-29T09:33:37.674Z,87.75
2022-11-29T09:36:08.446Z,87.59
2022-11-29T09:38:41.429Z,87.43
2022-11-29T09:41:34.274Z,87.16
2022-11-29T09:44:08.838Z,87.08
2022-11-29T09:46:43.863Z,86.79
2022-11-29T09:49:33.499Z,86.74
2022-11-29T09:52:07.571Z,86.94
2022-11-29T09:54:40.976Z,87.10
2022-11-29T09:57:11.234Z,87.59
2022-11-29T09:59:44.888Z,87.35
2022-11-29T10:02:21.720Z,87.26
2022-11-29T10:04:55.179Z,87.12
2022-11-29T10:07:27.628Z,87.00
2022-11-29T10:10:04.402Z,86.96
2022-11-29T10:12:37.799Z,86.90
2022-11-29T10:15:13.936Z,86.93
2022-11-29T10:17:48.054Z,86.72
2022-11-29T10:20:18.326Z,86.84
2022-11-29T10:22:53.595Z,87.07
2022-11-29T10:25:29.330Z,87.13
2022-11-29T10:27:58.994Z,87.08
2022-11-29T10:30:28.573Z,87.11
2022-11-29T10:33:00.188Z,87.21
2022-11-29T10:35:30.590Z,87.33
2022-11-29T10:40:57.563Z,87.27
2022-11-29T10:43:27.250Z,87.14
2022-11-29T10:45:58.923Z,87.12
2022-11-29T10:48:31.784Z,86.97
2022-11-29T10:51:01.706Z,87.07
2022-11-29T10:53:35.886Z,86.93
2022-11-29T10:56:10.396Z,86.76
2022-11-29T10:58:57.356Z,86.59
2022-11-29T11:01:29.147Z,86.68
2022-11-29T11:04:03.240Z,86.68
2022-11-29T11:06:45.993Z,86.35
2022-11-29T11:09:21.634Z,86.34
2022-11-29T11:11:58.786Z,86.13
2022-11-29T11:14:30.383Z,86.00
2022-11-29T11:17:17.485Z,85.57
2022-11-29T11:19:57.640Z,85.67
2022-11-29T11:22:27.956Z,85.76
2022-11-29T11:25:03.249Z,85.70
2022-11-29T11:27:38.574Z,85.75
2022-11-29T11:30:10.608Z,85.70
2022-11-29T11:32:40.210Z,85.71
2022-11-29T11:35:24.802Z,85.68
2022-11-29T11:37:59.666Z,85.72
2022-11-29T11:40:31.250Z,85.79
2022-11-29T11:43:04.990Z,85.56
2022-11-29T11:45:38.614Z,85.67
2022-11-29T11:48:15.039Z,85.67
2022-11-29T11:50:47.299Z,85.56
2022-11-29T11:53:25.358Z,85.60
2022-11-29T11:56:01.378Z,85.48
2022-11-29T11:58:35.648Z,85.53
2022-11-29T12:01:19.161Z,85.44
2022-11-29T12:03:53.668Z,85.69
2022-11-29T12:06:39.645Z,85.59
2022-11-29T12:09:18.743Z,85.61
2022-11-29T12:11:54.279Z,85.73
2022-11-29T12:14:34.104Z,85.68
2022-11-29T12:17:14.285Z,85.68
2022-11-29T12:19:55.572Z,85.96
2022-11-29T12:22:28.097Z,86.05
2022-11-29T12:25:01.058Z,85.94
2022-11-29T12:27:30.772Z,85.92
2022-11-29T12:30:03.175Z,86.01
2022-11-29T12:32:49.756Z,85.88
2022-11-29T12:35:42.966Z,86.08
2022-11-29T12:38:23.532Z,86.10
2022-11-29T12:40:57.683Z,86.08
2022-11-29T12:43:27.951Z,86.28
2022-11-29T12:46:06.899Z,86.30
2022-11-29T12:48:40.999Z,86.28
2022-11-29T12:51:16.867Z,86.22
2022-11-29T12:53:55.232Z,86.24
2022-11-29T12:56:29.593Z,86.48
2022-11-29T12:59:07.204Z,86.61
2022-11-29T13:01:53.845Z,86.51
2022-11-29T13:04:26.803Z,86.79
2022-11-29T13:07:00.294Z,86.73
2022-11-29T13:09:49.935Z,86.71
2022-11-29T13:12:23.413Z,86.81
2022-11-29T13:14:58.409Z,86.63
2022-11-29T13:17:40.369Z,86.75
2022-11-29T13:20:30.590Z,86.74
2022-11-29T13:23:07.221Z,86.66
2022-11-29T13:25:39.773Z,86.82
2022-11-29T13:28:14.364Z,86.76
2022-11-29T13:30:44.089Z,86.88
2022-11-29T13:33:23.273Z,86.91
2022-11-29T13:35:59.553Z,87.11
2022-11-29T13:38:34.443Z,87.06
2022-11-29T13:41:10.139Z,87.07
2022-11-29T13:43:42.484Z,87.03
2022-11-29T13:46:19.740Z,86.96
2022-11-29T13:48:54.281Z,86.93
2022-11-29T13:51:26.779Z,86.54
2022-11-29T13:53:57.116Z,86.52
2022-11-29T13:56:32.744Z,86.53
2022-11-29T13:59:03.619Z,86.63
2022-11-29T14:01:46.520Z,86.44
2022-11-29T14:04:27.498Z,86.46
2022-11-29T14:07:08.846Z,86.56
2022-11-29T14:09:44.925Z,86.64
2022-11-29T14:12:28.185Z,86.46
2022-11-29T14:15:01.479Z,86.74
2022-11-29T14:17:37.275Z,86.58
2022-11-29T14:20:54.517Z,86.61
2022-11-29T14:23:41.011Z,86.65
2022-11-29T14:26:28.522Z,86.62
2022-11-29T14:28:58.658Z,86.82
2022-11-29T14:31:53.387Z,86.83
2022-11-29T14:34:36.018Z,86.83
2022-11-29T14:37:11.682Z,86.98
2022-11-29T14:39:49.548Z,87.02
2022-11-29T14:42:21.161Z,87.23
2022-11-29T14:44:53.715Z,87.26
2022-11-29T14:47:29.946Z,87.28
2022-11-29T14:50:00.893Z,87.36
2022-11-29T14:52:33.006Z,87.36
2022-11-29T14:55:08.009Z,87.30
2022-11-29T14:58:16.220Z,87.40
2022-11-29T15:01:02.703Z,87.54
2022-11-29T15:03:37.546Z,87.56
2022-11-29T15:06:17.908Z,87.54
2022-11-29T15:08:52.889Z,87.51
2022-11-29T15:11:34.707Z,87.40
2022-11-29T15:14:08.317Z,87.86
2022-11-29T15:16:57.760Z,87.80
2022-11-29T15:19:49.166Z,87.95
2022-11-29T15:22:20.672Z,87.98
2022-11-29T15:24:55.287Z,88.12
2022-11-29T15:27:27.586Z,88.20
2022-11-29T15:29:58.939Z,88.27
2022-11-29T15:32:31.341Z,88.34
2022-11-29T15:35:01.532Z,88.48
2022-11-29T15:37:44.547Z,88.61
2022-11-29T15:40:17.198Z,88.73
2022-11-29T15:42:51.425Z,88.83
2022-11-29T15:45:29.869Z,89.02
2022-11-29T15:48:15.110Z,89.30
2022-11-29T15:50:48.661Z,89.47
2022-11-29T15:53:22.714Z,89.44
2022-11-29T15:55:52.254Z,89.51
2022-11-29T15:58:24.497Z,89.67
2022-11-29T16:00:54.960Z,89.73
2022-11-29T16:03:29.077Z,89.96
2022-11-29T16:06:04.108Z,90.25
2022-11-29T16:08:37.400Z,90.09
2022-11-29T16:11:08.605Z,90.27
2022-11-29T16:13:43.154Z,90.48
2022-11-29T16:16:20.496Z,90.54
2022-11-29T16:18:54.766Z,90.60
2022-11-29T16:21:26.090Z,90.54
2022-11-29T16:23:56.304Z,90.75
2022-11-29T16:26:27.140Z,90.72
2022-11-29T16:29:00.104Z,90.88
2022-11-29T16:31:34.958Z,90.84
2022-11-29T16:34:10.332Z,91.14
2022-11-29T16:36:40.091Z,91.01
2022-11-29T16:39:10.991Z,91.29
2022-11-29T16:41:41.615Z,91.38
2022-11-29T16:44:45.513Z,91.41
2022-11-29T16:47:19.102Z,91.66
2022-11-29T16:49:49.132Z,91.67
2022-11-29T16:52:27.093Z,91.87
2022-11-29T16:54:56.773Z,92.03
2022-11-29T16:57:26.640Z,92.12
2022-11-29T16:59:58.920Z,91.97
2022-11-29T17:02:31.725Z,92.11
2022-11-29T17:05:01.387Z,92.05
2022-11-29T17:07:32.728Z,92.08
2022-11-29T17:10:02.771Z,92.16
2022-11-29T17:12:32.641Z,92.05
2022-11-29T17:15:04.863Z,92.17
2022-11-29T17:17:34.497Z,92.02
2022-11-29T17:20:04.110Z,92.15
2022-11-29T17:22:33.683Z,92.03
2022-11-29T17:25:03.339Z,92.07
2022-11-29T17:27:33.172Z,92.36
2022-11-29T17:30:06.034Z,92.10
2022-11-29T17:32:36.605Z,92.26
2022-11-29T17:35:06.444Z,92.17
2022-11-29T17:37:36.025Z,92.18
2022-11-29T17:40:05.617Z,92.23
2022-11-29T17:42:35.276Z,92.44
2022-11-29T17:45:07.958Z,92.34
2022-11-29T17:47:37.551Z,92.58
2022-11-29T17:50:08.461Z,92.74
2022-11-29T17:52:39.227Z,92.66
2022-11-29T17:55:10.297Z,92.82
2022-11-29T17:57:39.957Z,92.73
2022-11-29T18:00:15.418Z,92.83
2022-11-29T18:02:45.059Z,92.72
2022-11-29T18:05:14.689Z,92.94
2022-11-29T18:07:58.055Z,92.93
2022-11-29T18:10:28.540Z,93.21
2022-11-29T18:12:58.156Z,93.33
2022-11-29T18:15:30.352Z,93.48
2022-11-29T18:17:59.897Z,93.65
2022-11-29T18:20:29.503Z,93.81
2022-11-29T18:23:01.427Z,94.11
2022-11-29T18:25:39.553Z,94.17
2022-11-29T18:28:11.340Z,94.55
2022-11-29T18:30:43.562Z,94.63
2022-11-29T18:33:13.156Z,95.01
2022-11-29T18:35:42.791Z,94.91
2022-11-29T18:38:15.720Z,95.21
2022-11-29T18:40:48.370Z,95.24
2022-11-29T18:43:19.478Z,95.26
2022-11-29T18:45:51.793Z,95.32
2022-11-29T18:48:21.384Z,95.45
2022-11-29T18:50:51.025Z,95.41
2022-11-29T18:53:20.625Z,95.43
2022-11-29T18:55:50.223Z,95.49
2022-11-29T18:58:20.069Z,95.51
2022-11-29T19:00:52.348Z,95.51
2022-11-29T19:03:21.994Z,95.56
2022-11-29T19:05:55.090Z,95.49
2022-11-29T19:08:25.563Z,95.64
2022-11-29T19:10:55.296Z,95.54
2022-11-29T19:13:24.956Z,95.48
2022-11-29T19:15:58.215Z,95.44
2022-11-29T19:18:27.878Z,95.50
2022-11-29T19:21:06.353Z,95.46
2022-11-29T19:23:36.031Z,95.38
2022-11-29T19:26:06.519Z,95.25
2022-11-29T19:28:38.279Z,95.26
2022-11-29T19:31:11.110Z,95.35
2022-11-29T19:33:44.863Z,95.22
2022-11-29T19:36:15.907Z,95.23
2022-11-29T19:38:50.244Z,95.24
2022-11-29T19:41:24.809Z,95.25
2022-11-29T19:43:54.558Z,95.10
2022-11-29T19:46:28.383Z,94.90
2022-11-29T19:48:59.517Z,95.00
2022-11-29T19:51:30.252Z,94.93
2022-11-29T19:54:01.590Z,94.55
2022-11-29T19:56:32.193Z,94.55
2022-11-29T19:59:02.743Z,94.68
2022-11-29T20:01:40.880Z,94.69
2022-11-29T20:04:11.780Z,94.61
2022-11-29T20:06:41.554Z,94.56
2022-11-29T20:09:11.300Z,94.50
2022-11-29T20:11:41.092Z,94.32
2022-11-29T20:14:11.542Z,94.35
2022-11-29T20:16:44.493Z,94.42
2022-11-29T20:19:16.228Z,94.10
2022-11-29T20:21:47.796Z,94.07
2022-11-29T20:24:19.388Z,94.06
2022-11-29T20:26:50.659Z,94.44
2022-11-29T20:29:21.868Z,94.07
2022-11-29T20:31:54.088Z,94.13
2022-11-29T20:34:23.940Z,93.92
2022-11-29T20:37:10.576Z,93.93
2022-11-29T20:39:46.568Z,93.94
2022-11-29T20:42:48.831Z,93.94
2022-11-29T20:45:19.598Z,93.76
2022-11-29T20:47:56.204Z,93.83
2022-11-29T20:50:28.679Z,93.85
2022-11-29T20:53:09.181Z,93.84
2022-11-29T20:55:44.891Z,93.72
2022-11-29T20:58:16.157Z,93.90
2022-11-29T21:00:45.942Z,93.56
2022-11-29T21:03:19.361Z,93.68
2022-11-29T21:05:49.451Z,93.76
2022-11-29T21:08:21.932Z,93.54
2022-11-29T21:10:53.266Z,93.82
2022-11-29T21:13:24.257Z,93.88
2022-11-29T21:15:54.907Z,93.73
2022-11-29T21:18:29.951Z,93.60
2022-11-29T21:21:06.425Z,93.64
2022-11-29T21:23:45.504Z,93.46
2022-11-29T21:26:18.719Z,93.53
2022-11-29T21:29:00.817Z,93.63
2022-11-29T21:31:31.113Z,93.42
2022-11-29T21:34:03.964Z,93.69
2022-11-29T21:36:33.859Z,93.44
2022-11-29T21:39:05.263Z,93.29
2022-11-29T21:41:35.283Z,93.37
2022-11-29T21:44:07.070Z,93.59
2022-11-29T21:46:37.601Z,93.68
2022-11-29T21:49:10.413Z,93.65
2022-11-29T21:51:40.021Z,93.41
2022-11-29T21:54:09.650Z,93.75
2022-11-29T21:56:39.232Z,93.71
2022-11-29T21:59:08.846Z,93.71
2022-11-29T22:01:38.674Z,93.72
2022-11-29T22:04:11.064Z,93.76
2022-11-29T22:06:40.963Z,93.73
2022-11-29T22:09:10.690Z,93.92
2022-11-29T22:11:40.274Z,93.75
2022-11-29T22:14:18.369Z,93.76
2022-11-29T22:16:49.971Z,93.99
2022-11-29T22:19:23.371Z,93.81
2022-11-29T22:21:54.179Z,93.91
2022-11-29T22:24:26.312Z,93.95
2022-11-29T22:26:56.255Z,94.22
2022-11-29T22:29:26.711Z,94.26
2022-11-29T22:31:59.293Z,94.23
2022-11-29T22:34:31.611Z,94.40
2022-11-29T22:37:01.183Z,94.49
2022-11-29T22:39:30.753Z,94.26
2022-11-29T22:42:00.313Z,94.42
2022-11-29T22:44:30.348Z,94.42
2022-11-29T22:47:00.029Z,94.49
2022-11-29T22:49:33.343Z,94.43
2022-11-29T22:52:03.052Z,94.29
2022-11-29T22:54:32.711Z,94.59
2022-11-29T22:57:02.333Z,94.47
2022-11-29T22:59:31.957Z,94.43
2022-11-29T23:02:01.549Z,94.29
2022-11-29T23:04:33.760Z,94.36
2022-11-29T23:07:04.507Z,94.51
2022-11-29T23:09:34.123Z,94.54
2022-11-29T23:12:03.757Z,94.39
2022-11-29T23:14:33.452Z,94.46
2022-11-29T23:17:03.044Z,94.29
2022-11-29T23:19:35.229Z,94.11
2022-11-29T23:22:04.841Z,94.25
2022-11-29T23:24:34.407Z,94.17
2022-11-29T23:27:04.941Z,94.31
2022-11-29T23:29:34.543Z,94.15
2022-11-29T23:32:04.152Z,94.21
2022-11-29T23:34:36.362Z,94.09
2022-11-29T23:37:05.953Z,94.40
2022-11-29T23:39:35.575Z,94.10
2022-11-29T23:42:05.373Z,94.11
2022-11-29T23:44:35.080Z,94.14
2022-11-29T23:47:04.692Z,94.03
2022-11-29T23:49:39.858Z,94.29
2022-11-29T23:52:09.482Z,94.41
2022-11-29T23:54:39.086Z,94.39
2022-11-29T23:57:08.658Z,94.24
2022-11-29T23:59:38.455Z,94.22
